Brunswick, Indiana
Current Conditions -  °F | °C
As of 1:45 PM on Friday 24 Oct 2014 (Local Time) from KGYY Reporting Station
Broken Clouds Broken Clouds  
Wind Chill: 66°   Ceiling: 2900
Heat Index: 66°   Visibility: 10mi
Dew Point: 50°   Wind: 8mph
Humidity: 56%   Direction: 210°SSW
Pressure: 30.01"   Gusts: NA
Location:  41.596°N, 87.4118°W
Report Text: KGYY 241845Z 21007KT 10SM BKN029 19/10 A3001
Loading
Personal Weather Stations






























Interactive Weather Map
Tropical Storm Tracking
New forecast layout! Learn more

10-Day Weather Forecast

Advertisements
Track Severe Weather on mobile